Aviation Digital Data Service (ADDS)

Output produced by METARs form (1432 UTC 25 October 2014)
found at http://aviationweather.gov/adds/metars/
 
KDAG 251350Z AUTO 24005KT 10SM CLR 18/01 A3004 RMK AO2 SLP152 T01780011
KDAG 251120Z 2512/2612 28008KT P6SM SKC 
     FM252000 25016G26KT P6SM SCT250
       
KEDW 251358Z 00000KT 90SM FEW075 BKN250 11/M02 A3006 RMK AO2A SLP161 T01141017
TAF KEDW 2502/2608 25012KT 9999 SKC QNH2997INS 
     BECMG 2503/2504 VRB06KT 9999 SKC QNH3002INS 
     BECMG 2517/2518 24012G18KT 9999 FEW300 QNH3000INS 
     TEMPO 2518/2521 24015G25KT 510009 
     BECMG 2520/2521 25020G30KT 9999 SKC 520009 QNH3000INS 
     BECMG 2600/2601 25012G18KT 9999 SKC QNH2998INS 
     BECMG 2602/2603 24009KT 9999 SKC QNH3002INS TX27/2522Z TN08/2513Z LAST NO AMDS AFT 2505 NEXT 2710
       
KVCV 251415Z AUTO 00000KT 10SM CLR 12/02 A3009 RMK AO2
KONT 251353Z 00000KT 10SM BKN095 19/05 A3001 RMK AO2 SLP150 T01940050
KONT 251129Z 2512/2618 VRB04KT P6SM FEW090 
     FM251900 25012KT P6SM SCT090 
     FM260300 VRB04KT P6SM SKC 
     FM260900 VRB04KT 4SM BR BKN009 
     FM261600 VRB04KT 6SM BR SCT010
       
KNID 251356Z AUTO 21010KT 10SM CLR 18/M02 A3002 RMK AO2 SLP153 T01781017 $
KSNA 251406Z COR VRB04KT 8SM FEW006 BKN100 19/16 A3001 RMK AO2
KSNA 251234Z 2513/2612 VRB04KT P6SM BKN080 
     FM251800 23010KT P6SM SCT080 
     FM260300 VRB05KT P6SM SCT015 
     FM260500 VRB05KT P6SM OVC015
       
KSAN 251351Z 00000KT 10SM BKN100 BKN180 19/13 A3000 RMK AO2 SLP159 T01940133 $
KSAN 251237Z 2513/2618 VRB05KT P6SM FEW008 SCT080 
     FM252000 29011KT P6SM SCT080 
     FM260200 VRB04KT P6SM FEW015 
     FM260500 VRB03KT P6SM BKN015 
     FM260900 VRB04KT P6SM OVC020
       
KNXP 251356Z 30005KT 9SM CLR 16/03 A3011 RMK AO2 SLP166 T01610033
TAF KNXP 2509/2609 VRB05KT 9999 SKC QNH3007INS 
     BECMG 2522/2600 23010KT 9999 SKC QNH3001INS AUTOMATED SENSOR METWATCH 2509 TIL 2715 T14/2513Z T32/2523Z
       
KPSP 251353Z 00000KT 10SM CLR 22/09 A2997 RMK AO2 SLP145 T02220089
KPSP 251129Z 2512/2612 VRB06KT P6SM FEW090 
     FM252300 33011KT P6SM FEW090 
     FM260200 32012G20KT P6SM FEW090 
     FM260700 VRB06KT P6SM FEW090
       
KLAX 251353Z 00000KT 10SM BKN100 18/16 A3001 RMK AO2 SLP160 T01830162 $
KLAX 251214Z 2512/2618 VRB03KT P6SM FEW010 OVC080 
     FM251700 25008KT P6SM FEW010 BKN150 
     FM252100 26014KT P6SM BKN150 
     FM260300 27008KT P6SM SCT150 
     FM260700 VRB03KT P6SM BKN010 
     FM261600 VRB03KT P6SM SCT015
       
KCNO 251353Z 00000KT 10SM BKN095 17/08 A3002 RMK AO2 SLP160 T01670078
KSMO 251351Z 00000KT 10SM SCT100 17/10 A3001 RMK AO2 SLP160 T01670100 $
KLGB 251400Z 32003KT 8SM FEW008 OVC100 19/17 A3001 RMK AO2 T01890172
KLGB 251214Z 2512/2612 VRB03KT P6SM FEW008 OVC080 
     FM251700 VRB03KT P6SM FEW010 BKN150 
     FM252000 19007KT P6SM BKN150 
     FM252300 30010KT P6SM BKN150 
     FM260500 VRB03KT P6SM SCT150 
     FM260800 VRB03KT P6SM BKN010
       
KVNY 251351Z 00000KT 10SM FEW090 14/06 A3002 RMK AO2 SLP158 T01390061
KVNY 251255Z 2513/2612 VRB03KT P6SM BKN150 
     FM251800 VRB03KT P6SM BKN150 
     FM252000 15008KT P6SM BKN150 
     FM260200 VRB03KT P6SM SCT150 
     FM260900 VRB03KT P6SM BKN008
       
KBUR 251353Z 26005KT 10SM FEW090 16/07 A3001 RMK AO2 SLP151 T01560072
KBUR 251254Z 2513/2612 VRB03KT P6SM BKN150 
     FM251800 17008KT P6SM BKN150 
     FM260400 VRB03KT P6SM SCT150 
     FM260900 VRB03KT P6SM BKN008
       
KBFL 251354Z 01012KT 10SM CLR 18/07 A3000 RMK AO2 SLP155 T01780072
KBFL 251216Z 2512/2612 VRB05KT P6SM SCT250 
     FM251900 31011KT P6SM BKN250 
     FM260300 34006KT P6SM BKN050
       
KPMD 251353Z 17003KT 10SM OVC070 14/01 A3007 RMK AO2 SLP164 T01440011
KPMD 251131Z 2512/2612 VRB03KT P6SM BKN150 
     FM251800 25012KT P6SM BKN150 
     FM252100 25015G25KT P6SM BKN150 
     FM260300 25012KT P6SM SCT150 
     FM261000 VRB03KT P6SM SCT150
       
KOXR 251416Z 04005KT 9SM SCT002 13/09 A3002 RMK AO2 T01280094
KOXR 251426Z 2514/2612 VRB05KT P6SM SCT002 
     TEMPO 2514/2516 5SM BR BKN002 
     FM251700 26008KT P6SM FEW015 BKN120 
     FM252100 27014KT P6SM BKN150 
     FM260300 30008KT P6SM SCT150 
     FM260700 VRB03KT P6SM SCT150
       
KWJF 251356Z 29007KT 10SM CLR 12/M03 A3007 RMK AO2 SLP174 T01171033
KWJF 251131Z 2512/2612 VRB03KT P6SM BKN150 
     FM251800 25012KT P6SM BKN150 
     FM252100 25018G28KT P6SM BKN150 
     FM260300 25014KT P6SM SCT150 
     FM260600 26010KT P6SM SCT150
       
KCMA 251355Z 07006KT 8SM SCT002 14/12 A3002 RMK AO2 SLP172 T01390122
KFAT 251353Z 09005KT 9SM FEW150 BKN200 BKN250 14/07 A2999 RMK AO2 SLP153 T01390067
KFAT 251148Z 2512/2612 VRB04KT P6SM BKN250 
     FM251800 15010G15KT P6SM SCT050 BKN100 
     PROB30 2522/2602 -SHRA BKN050 
     FM260200 31009KT P6SM BKN060
       
KEED 251356Z AUTO 00000KT 10SM CLR 20/05 A2998 RMK AO2 SLP127 T02000050
KEED 251120Z 2512/2612 VRB05KT P6SM SKC 
     FM252000 19011G18KT P6SM FEW250 
     FM260200 25010KT P6SM FEW250
       
KLSV 251358Z AUTO 19002KT 10SM CLR 14/02 A3001 RMK AO2 SLP148 T01440023 $
TAF KLSV 2509/2615 06009KT 9999 SKC QNH2996INS 
     BECMG 2520/2521 20012G18KT 9999 SCT250 QNH2994INS 
     BECMG 2610/2611 20015G25KT 9999 SCT250 QNH2994INS TX29/2521Z TN16/2512Z
       
KLAS 251356Z 21006KT 10SM FEW250 18/04 A2998 RMK AO2 SLP135 T01780039
KLAS 251120Z 2512/2612 20009KT P6SM SKC 
     FM252000 22016G24KT P6SM SCT250
       
KHII 251415Z AUTO 06005KT 10SM CLR 21/06 A2998 RMK AO2
KIFP 251415Z AUTO 13003KT 10SM CLR 19/05 A2999 RMK AO2 PWINO